Řízení letového provozu České republiky
Letiste: LKPD Aktualizace: 21.08.2019 07:00:34  UTC
 METAR LKPD 21.08. 07:00 ...
METAR LKPD 210700Z 27007KT 9999 -RA SCT009 BKN017 OVC042 15/14 Q1028 NOSIG RMK WHT WHT=
 TAF LKPD 21.08. 05:00 ...
TAF LKPD 210500Z 2106/2206 30008KT 8000 RA BKN008 OVC025      TEMPO 2106/2107 5000 RA BR      BECMG 2108/2110 9999 NSW SCT020 BKN040      BECMG 2114/2116 CAVOK      BECMG 2201/2203 2000 BR      TEMPO 2202/2206 0600 FG VV001=